sensor_id;sensor_type;location;lat;lon;timestamp;temperature;humidity
12374;DHT22;6251;51.762;8.660;2022-12-24T05:07:59;8.40;99.90
12374;DHT22;6251;51.762;8.660;2022-12-24T05:18:00;8.30;99.90
12374;DHT22;6251;51.762;8.660;2022-12-24T05:28:00;8.30;99.90
12374;DHT22;6251;51.762;8.660;2022-12-24T05:38:01;8.20;99.90
12374;DHT22;6251;51.762;8.660;2022-12-24T05:48:01;8.10;99.90
12374;DHT22;6251;51.762;8.660;2022-12-24T05:58:02;8.20;99.90
12374;DHT22;6251;51.762;8.660;2022-12-24T06:08:02;8.20;99.90
12374;DHT22;6251;51.762;8.660;2022-12-24T06:18:03;8.20;99.90
12374;DHT22;6251;51.762;8.660;2022-12-24T06:28:04;8.20;99.90
12374;DHT22;6251;51.762;8.660;2022-12-24T06:38:05;8.30;99.90
12374;DHT22;6251;51.762;8.660;2022-12-24T06:48:05;8.30;99.90
12374;DHT22;6251;51.762;8.660;2022-12-24T06:58:06;8.40;99.90
12374;DHT22;6251;51.762;8.660;2022-12-24T07:08:07;8.40;99.90
12374;DHT22;6251;51.762;8.660;2022-12-24T07:18:08;8.40;99.90
12374;DHT22;6251;51.762;8.660;2022-12-24T07:28:09;8.40;99.90
12374;DHT22;6251;51.762;8.660;2022-12-24T07:38:09;8.40;99.90
12374;DHT22;6251;51.762;8.660;2022-12-24T07:48:10;8.40;99.90
12374;DHT22;6251;51.762;8.660;2022-12-24T07:58:10;8.50;99.90
12374;DHT22;6251;51.762;8.660;2022-12-24T08:08:11;8.50;99.90
12374;DHT22;6251;51.762;8.660;2022-12-24T08:18:12;8.40;99.90
12374;DHT22;6251;51.762;8.660;2022-12-24T08:28:15;8.30;99.90
12374;DHT22;6251;51.762;8.660;2022-12-24T08:38:16;8.40;99.90
12374;DHT22;6251;51.762;8.660;2022-12-24T08:48:17;8.50;99.90
12374;DHT22;6251;51.762;8.660;2022-12-24T08:58:18;8.60;99.90
12374;DHT22;6251;51.762;8.660;2022-12-24T09:08:35;8.70;99.90
12374;DHT22;6251;51.762;8.660;2022-12-24T09:18:40;8.80;99.90
12374;DHT22;6251;51.762;8.660;2022-12-24T09:28:41;8.80;99.90
12374;DHT22;6251;51.762;8.660;2022-12-24T09:38:44;8.80;99.90
12374;DHT22;6251;51.762;8.660;2022-12-24T09:48:48;8.90;99.90
12374;DHT22;6251;51.762;8.660;2022-12-24T09:58:57;9.10;99.90
12374;DHT22;6251;51.762;8.660;2022-12-24T10:09:31;9.10;99.90
12374;DHT22;6251;51.762;8.660;2022-12-24T10:19:45;9.10;99.90
12374;DHT22;6251;51.762;8.660;2022-12-24T10:29:51;9.30;99.90
12374;DHT22;6251;51.762;8.660;2022-12-24T10:50:46;9.60;99.90
12374;DHT22;6251;51.762;8.660;2022-12-24T11:00:50;9.70;99.90
12374;DHT22;6251;51.762;8.660;2022-12-24T11:11:00;9.70;99.90
12374;DHT22;6251;51.762;8.660;2022-12-24T11:21:02;9.80;99.90
12374;DHT22;6251;51.762;8.660;2022-12-24T11:31:16;10.00;99.90
12374;DHT22;6251;51.762;8.660;2022-12-24T11:41:17;10.20;99.90
12374;DHT22;6251;51.762;8.660;2022-12-24T11:51:26;10.20;99.90
12374;DHT22;6251;51.762;8.660;2022-12-24T12:01:35;10.40;99.90
12374;DHT22;6251;51.762;8.660;2022-12-24T12:11:39;10.40;99.90
12374;DHT22;6251;51.762;8.660;2022-12-24T12:21:44;10.50;99.90
12374;DHT22;6251;51.762;8.660;2022-12-24T12:31:54;10.30;99.90
12374;DHT22;6251;51.762;8.660;2022-12-24T12:52:34;10.30;99.90
12374;DHT22;6251;51.762;8.660;2022-12-24T13:23:29;10.40;99.90
12374;DHT22;6251;51.762;8.660;2022-12-24T13:44:00;10.40;99.90
12374;DHT22;6251;51.762;8.660;2022-12-24T13:54:01;10.40;99.90
12374;DHT22;6251;51.762;8.660;2022-12-24T14:04:20;10.30;99.90
12374;DHT22;6251;51.762;8.660;2022-12-24T14:24:34;10.30;99.90
12374;DHT22;6251;51.762;8.660;2022-12-24T14:34:34;9.90;99.90
12374;DHT22;6251;51.762;8.660;2022-12-24T14:55:38;9.20;99.90
12374;DHT22;6251;51.762;8.660;2022-12-24T15:05:40;9.10;99.90
12374;DHT22;6251;51.762;8.660;2022-12-24T15:15:42;8.90;99.90
12374;DHT22;6251;51.762;8.660;2022-12-24T15:25:45;8.70;99.90
12374;DHT22;6251;51.762;8.660;2022-12-24T15:35:54;8.50;99.90
12374;DHT22;6251;51.762;8.660;2022-12-24T15:45:56;8.20;99.90
12374;DHT22;6251;51.762;8.660;2022-12-24T15:56:10;8.00;99.90
12374;DHT22;6251;51.762;8.660;2022-12-24T16:06:11;7.70;99.90
12374;DHT22;6251;51.762;8.660;2022-12-24T16:16:14;7.40;99.90
12374;DHT22;6251;51.762;8.660;2022-12-24T16:26:15;7.20;99.90
12374;DHT22;6251;51.762;8.660;2022-12-24T16:36:29;6.90;99.90
12374;DHT22;6251;51.762;8.660;2022-12-24T16:46:30;6.70;99.90
12374;DHT22;6251;51.762;8.660;2022-12-24T16:56:31;6.70;99.90
12374;DHT22;6251;51.762;8.660;2022-12-24T17:06:31;6.50;99.90
12374;DHT22;6251;51.762;8.660;2022-12-24T17:16:32;6.40;99.90
12374;DHT22;6251;51.762;8.660;2022-12-24T17:26:33;6.30;99.90
12374;DHT22;6251;51.762;8.660;2022-12-24T17:36:33;6.10;99.90
12374;DHT22;6251;51.762;8.660;2022-12-24T17:46:34;6.00;99.90
12374;DHT22;6251;51.762;8.660;2022-12-24T17:56:35;5.70;99.90
12374;DHT22;6251;51.762;8.660;2022-12-24T18:06:41;5.50;99.90
12374;DHT22;6251;51.762;8.660;2022-12-24T18:16:42;5.30;99.90
12374;DHT22;6251;51.762;8.660;2022-12-24T18:26:44;5.20;99.90
12374;DHT22;6251;51.762;8.660;2022-12-24T18:36:45;5.10;99.90
12374;DHT22;6251;51.762;8.660;2022-12-24T18:46:45;4.90;99.90
12374;DHT22;6251;51.762;8.660;2022-12-24T18:56:49;4.70;99.90
12374;DHT22;6251;51.762;8.660;2022-12-24T19:17:33;4.40;99.90
12374;DHT22;6251;51.762;8.660;2022-12-24T19:27:33;4.30;99.90
12374;DHT22;6251;51.762;8.660;2022-12-24T19:37:34;4.20;99.90
12374;DHT22;6251;51.762;8.660;2022-12-24T19:47:34;4.10;99.90
12374;DHT22;6251;51.762;8.660;2022-12-24T19:57:35;4.00;99.90
12374;DHT22;6251;51.762;8.660;2022-12-24T20:07:35;4.00;99.90
12374;DHT22;6251;51.762;8.660;2022-12-24T20:17:36;3.80;99.90
12374;DHT22;6251;51.762;8.660;2022-12-24T20:27:47;3.80;99.90
12374;DHT22;6251;51.762;8.660;2022-12-24T20:37:48;3.60;99.90
12374;DHT22;6251;51.762;8.660;2022-12-24T20:47:48;3.60;99.90
12374;DHT22;6251;51.762;8.660;2022-12-24T20:57:50;3.60;99.90
12374;DHT22;6251;51.762;8.660;2022-12-24T21:07:51;3.50;99.90
12374;DHT22;6251;51.762;8.660;2022-12-24T21:17:52;3.60;99.90
12374;DHT22;6251;51.762;8.660;2022-12-24T21:27:53;3.70;99.90
12374;DHT22;6251;51.762;8.660;2022-12-24T21:37:54;3.70;99.90
12374;DHT22;6251;51.762;8.660;2022-12-24T21:47:55;3.70;99.90
12374;DHT22;6251;51.762;8.660;2022-12-24T21:57:56;3.70;99.90
12374;DHT22;6251;51.762;8.660;2022-12-24T22:07:56;3.70;99.90
